sensor_id;sensor_type;location;lat;lon;timestamp;P1;durP1;ratioP1;P2;durP2;ratioP2
27209;SDS011;14721;42.668;23.386;2022-07-18T00:01:42;2.13;;;1.15;;
27209;SDS011;14721;42.668;23.386;2022-07-18T00:04:07;1.10;;;0.85;;
27209;SDS011;14721;42.668;23.386;2022-07-18T00:06:33;1.92;;;1.42;;
27209;SDS011;14721;42.668;23.386;2022-07-18T00:08:59;1.90;;;1.00;;
27209;SDS011;14721;42.668;23.386;2022-07-18T00:11:24;2.72;;;1.90;;
27209;SDS011;14721;42.668;23.386;2022-07-18T00:13:50;1.83;;;0.88;;
27209;SDS011;14721;42.668;23.386;2022-07-18T00:16:16;1.75;;;0.85;;
27209;SDS011;14721;42.668;23.386;2022-07-18T00:18:42;1.63;;;1.08;;
27209;SDS011;14721;42.668;23.386;2022-07-18T00:21:09;1.95;;;1.25;;
27209;SDS011;14721;42.668;23.386;2022-07-18T00:23:36;1.65;;;1.20;;
27209;SDS011;14721;42.668;23.386;2022-07-18T00:26:03;1.92;;;1.23;;
27209;SDS011;14721;42.668;23.386;2022-07-18T00:28:29;2.15;;;1.42;;
27209;SDS011;14721;42.668;23.386;2022-07-18T00:30:55;1.83;;;1.40;;
27209;SDS011;14721;42.668;23.386;2022-07-18T00:33:21;1.75;;;1.13;;
27209;SDS011;14721;42.668;23.386;2022-07-18T00:35:47;1.88;;;1.17;;
27209;SDS011;14721;42.668;23.386;2022-07-18T00:38:12;1.67;;;1.30;;
27209;SDS011;14721;42.668;23.386;2022-07-18T00:40:38;2.05;;;1.00;;
27209;SDS011;14721;42.668;23.386;2022-07-18T00:43:04;2.63;;;1.20;;
27209;SDS011;14721;42.668;23.386;2022-07-18T00:45:29;1.48;;;0.88;;
27209;SDS011;14721;42.668;23.386;2022-07-18T00:47:55;1.33;;;1.10;;
27209;SDS011;14721;42.668;23.386;2022-07-18T00:50:21;1.27;;;1.00;;
27209;SDS011;14721;42.668;23.386;2022-07-18T00:52:47;3.08;;;1.00;;
27209;SDS011;14721;42.668;23.386;2022-07-18T00:55:14;0.98;;;0.93;;
27209;SDS011;14721;42.668;23.386;2022-07-18T00:57:39;1.73;;;0.95;;
27209;SDS011;14721;42.668;23.386;2022-07-18T01:00:07;2.33;;;1.00;;
27209;SDS011;14721;42.668;23.386;2022-07-18T01:02:54;1.20;;;0.70;;
27209;SDS011;14721;42.668;23.386;2022-07-18T01:05:19;1.40;;;0.90;;
27209;SDS011;14721;42.668;23.386;2022-07-18T01:07:45;1.42;;;0.90;;
27209;SDS011;14721;42.668;23.386;2022-07-18T01:10:12;4.18;;;1.08;;
27209;SDS011;14721;42.668;23.386;2022-07-18T01:12:37;1.20;;;0.90;;
27209;SDS011;14721;42.668;23.386;2022-07-18T01:15:04;1.52;;;1.20;;
27209;SDS011;14721;42.668;23.386;2022-07-18T01:17:30;2.13;;;0.95;;
27209;SDS011;14721;42.668;23.386;2022-07-18T01:19:56;1.35;;;1.05;;
27209;SDS011;14721;42.668;23.386;2022-07-18T01:22:22;1.65;;;0.80;;
27209;SDS011;14721;42.668;23.386;2022-07-18T01:24:48;1.38;;;1.00;;
27209;SDS011;14721;42.668;23.386;2022-07-18T01:27:16;1.45;;;0.75;;
27209;SDS011;14721;42.668;23.386;2022-07-18T01:29:45;2.83;;;1.55;;
27209;SDS011;14721;42.668;23.386;2022-07-18T01:32:12;1.15;;;0.70;;
27209;SDS011;14721;42.668;23.386;2022-07-18T01:34:39;0.50;;;0.50;;
27209;SDS011;14721;42.668;23.386;2022-07-18T01:37:05;0.73;;;0.60;;
27209;SDS011;14721;42.668;23.386;2022-07-18T01:39:31;1.23;;;0.80;;
27209;SDS011;14721;42.668;23.386;2022-07-18T01:42:01;1.15;;;0.77;;
27209;SDS011;14721;42.668;23.386;2022-07-18T01:44:31;2.75;;;1.08;;
27209;SDS011;14721;42.668;23.386;2022-07-18T01:46:57;1.08;;;0.63;;
27209;SDS011;14721;42.668;23.386;2022-07-18T01:49:24;1.02;;;0.93;;
27209;SDS011;14721;42.668;23.386;2022-07-18T01:51:51;1.00;;;0.75;;
27209;SDS011;14721;42.668;23.386;2022-07-18T01:54:21;0.70;;;0.70;;
27209;SDS011;14721;42.668;23.386;2022-07-18T01:56:48;1.48;;;0.80;;
27209;SDS011;14721;42.668;23.386;2022-07-18T01:59:14;4.95;;;1.80;;
27209;SDS011;14721;42.668;23.386;2022-07-18T02:01:40;3.47;;;1.10;;
27209;SDS011;14721;42.668;23.386;2022-07-18T02:04:08;2.65;;;1.45;;
27209;SDS011;14721;42.668;23.386;2022-07-18T02:06:33;0.60;;;0.60;;
27209;SDS011;14721;42.668;23.386;2022-07-18T02:08:59;1.73;;;1.00;;
27209;SDS011;14721;42.668;23.386;2022-07-18T02:11:24;1.13;;;0.90;;
27209;SDS011;14721;42.668;23.386;2022-07-18T02:13:50;3.03;;;0.70;;
27209;SDS011;14721;42.668;23.386;2022-07-18T02:16:16;1.38;;;0.73;;
27209;SDS011;14721;42.668;23.386;2022-07-18T02:18:42;2.38;;;0.65;;
27209;SDS011;14721;42.668;23.386;2022-07-18T02:21:08;0.70;;;0.63;;
27209;SDS011;14721;42.668;23.386;2022-07-18T02:23:34;3.15;;;1.00;;
27209;SDS011;14721;42.668;23.386;2022-07-18T02:26:00;0.93;;;0.65;;
27209;SDS011;14721;42.668;23.386;2022-07-18T02:28:26;1.13;;;0.82;;
27209;SDS011;14721;42.668;23.386;2022-07-18T02:30:52;1.33;;;0.77;;
27209;SDS011;14721;42.668;23.386;2022-07-18T02:33:18;1.45;;;0.80;;
27209;SDS011;14721;42.668;23.386;2022-07-18T02:35:44;1.58;;;1.02;;
27209;SDS011;14721;42.668;23.386;2022-07-18T02:38:10;1.67;;;1.00;;
27209;SDS011;14721;42.668;23.386;2022-07-18T02:40:37;0.77;;;0.60;;
27209;SDS011;14721;42.668;23.386;2022-07-18T02:43:03;1.88;;;0.90;;
27209;SDS011;14721;42.668;23.386;2022-07-18T02:45:29;0.65;;;0.65;;
27209;SDS011;14721;42.668;23.386;2022-07-18T02:47:56;1.25;;;1.02;;
27209;SDS011;14721;42.668;23.386;2022-07-18T02:50:21;2.03;;;1.05;;
27209;SDS011;14721;42.668;23.386;2022-07-18T02:52:47;2.70;;;1.00;;
27209;SDS011;14721;42.668;23.386;2022-07-18T02:55:13;2.17;;;0.90;;
27209;SDS011;14721;42.668;23.386;2022-07-18T02:57:39;0.75;;;0.75;;
27209;SDS011;14721;42.668;23.386;2022-07-18T03:00:07;0.88;;;0.70;;
27209;SDS011;14721;42.668;23.386;2022-07-18T03:02:38;1.70;;;1.17;;
27209;SDS011;14721;42.668;23.386;2022-07-18T03:05:05;1.95;;;1.30;;
27209;SDS011;14721;42.668;23.386;2022-07-18T03:07:32;0.70;;;0.70;;
27209;SDS011;14721;42.668;23.386;2022-07-18T03:09:59;1.95;;;1.15;;
27209;SDS011;14721;42.668;23.386;2022-07-18T03:12:25;2.15;;;0.80;;
27209;SDS011;14721;42.668;23.386;2022-07-18T03:14:50;1.80;;;1.05;;
27209;SDS011;14721;42.668;23.386;2022-07-18T03:17:17;1.67;;;1.08;;
27209;SDS011;14721;42.668;23.386;2022-07-18T03:19:42;3.72;;;1.15;;
27209;SDS011;14721;42.668;23.386;2022-07-18T03:22:09;4.00;;;1.63;;
27209;SDS011;14721;42.668;23.386;2022-07-18T03:24:35;1.95;;;1.33;;
27209;SDS011;14721;42.668;23.386;2022-07-18T03:27:01;5.20;;;2.42;;
27209;SDS011;14721;42.668;23.386;2022-07-18T03:29:26;1.55;;;1.38;;
27209;SDS011;14721;42.668;23.386;2022-07-18T03:31:52;5.28;;;1.75;;
27209;SDS011;14721;42.668;23.386;2022-07-18T03:34:17;2.55;;;1.35;;
27209;SDS011;14721;42.668;23.386;2022-07-18T03:36:44;4.57;;;1.65;;
27209;SDS011;14721;42.668;23.386;2022-07-18T03:39:11;4.47;;;1.40;;
27209;SDS011;14721;42.668;23.386;2022-07-18T03:41:37;2.80;;;1.35;;
27209;SDS011;14721;42.668;23.386;2022-07-18T03:44:06;3.05;;;1.92;;
27209;SDS011;14721;42.668;23.386;2022-07-18T03:46:32;3.15;;;1.67;;
27209;SDS011;14721;42.668;23.386;2022-07-18T03:48:58;3.80;;;1.85;;
27209;SDS011;14721;42.668;23.386;2022-07-18T03:51:23;2.92;;;1.85;;
27209;SDS011;14721;42.668;23.386;2022-07-18T03:53:49;2.22;;;1.50;;
27209;SDS011;14721;42.668;23.386;2022-07-18T03:56:15;6.07;;;1.80;;
27209;SDS011;14721;42.668;23.386;2022-07-18T03:58:41;3.35;;;2.05;;
27209;SDS011;14721;42.668;23.386;2022-07-18T04:01:07;7.38;;;1.67;;
27209;SDS011;14721;42.668;23.386;2022-07-18T04:03:33;3.97;;;1.90;;
27209;SDS011;14721;42.668;23.386;2022-07-18T04:05:58;4.90;;;2.42;;
27209;SDS011;14721;42.668;23.386;2022-07-18T04:08:24;5.90;;;2.63;;
27209;SDS011;14721;42.668;23.386;2022-07-18T04:10:50;7.03;;;3.08;;
27209;SDS011;14721;42.668;23.386;2022-07-18T04:13:16;4.88;;;2.47;;
27209;SDS011;14721;42.668;23.386;2022-07-18T04:15:42;3.67;;;1.75;;
27209;SDS011;14721;42.668;23.386;2022-07-18T04:18:09;5.68;;;2.60;;
27209;SDS011;14721;42.668;23.386;2022-07-18T04:20:35;3.95;;;2.17;;
27209;SDS011;14721;42.668;23.386;2022-07-18T04:23:03;8.88;;;3.15;;
27209;SDS011;14721;42.668;23.386;2022-07-18T04:25:38;2.67;;;1.75;;
27209;SDS011;14721;42.668;23.386;2022-07-18T04:28:05;7.88;;;2.97;;
27209;SDS011;14721;42.668;23.386;2022-07-18T04:30:33;4.80;;;2.55;;
27209;SDS011;14721;42.668;23.386;2022-07-18T04:33:04;8.57;;;2.15;;
27209;SDS011;14721;42.668;23.386;2022-07-18T04:35:31;3.85;;;2.38;;
27209;SDS011;14721;42.668;23.386;2022-07-18T04:37:57;6.53;;;2.72;;
27209;SDS011;14721;42.668;23.386;2022-07-18T04:40:24;5.25;;;1.90;;
27209;SDS011;14721;42.668;23.386;2022-07-18T04:42:50;3.92;;;2.10;;
27209;SDS011;14721;42.668;23.386;2022-07-18T04:45:16;5.70;;;2.17;;
27209;SDS011;14721;42.668;23.386;2022-07-18T04:47:43;7.53;;;2.97;;
27209;SDS011;14721;42.668;23.386;2022-07-18T04:50:08;3.83;;;2.53;;
27209;SDS011;14721;42.668;23.386;2022-07-18T04:52:38;6.85;;;2.75;;
27209;SDS011;14721;42.668;23.386;2022-07-18T04:55:12;3.38;;;2.22;;
27209;SDS011;14721;42.668;23.386;2022-07-18T04:57:39;10.90;;;2.47;;
27209;SDS011;14721;42.668;23.386;2022-07-18T05:00:06;5.53;;;2.45;;
27209;SDS011;14721;42.668;23.386;2022-07-18T05:02:39;6.28;;;2.65;;
27209;SDS011;14721;42.668;23.386;2022-07-18T05:05:07;4.25;;;2.28;;
27209;SDS011;14721;42.668;23.386;2022-07-18T05:07:34;5.22;;;2.92;;
27209;SDS011;14721;42.668;23.386;2022-07-18T05:10:00;6.28;;;2.47;;
27209;SDS011;14721;42.668;23.386;2022-07-18T05:12:26;3.53;;;2.13;;
27209;SDS011;14721;42.668;23.386;2022-07-18T05:14:51;3.88;;;2.20;;
27209;SDS011;14721;42.668;23.386;2022-07-18T05:17:16;3.83;;;2.13;;
27209;SDS011;14721;42.668;23.386;2022-07-18T05:19:42;2.95;;;1.73;;
27209;SDS011;14721;42.668;23.386;2022-07-18T05:22:08;7.35;;;2.28;;
27209;SDS011;14721;42.668;23.386;2022-07-18T05:24:33;5.13;;;2.67;;
27209;SDS011;14721;42.668;23.386;2022-07-18T05:26:59;4.40;;;2.08;;
27209;SDS011;14721;42.668;23.386;2022-07-18T05:29:25;4.88;;;2.65;;
27209;SDS011;14721;42.668;23.386;2022-07-18T05:31:50;4.28;;;1.83;;
27209;SDS011;14721;42.668;23.386;2022-07-18T05:34:17;8.38;;;3.22;;
27209;SDS011;14721;42.668;23.386;2022-07-18T05:36:43;2.55;;;1.67;;
27209;SDS011;14721;42.668;23.386;2022-07-18T05:39:08;4.80;;;1.40;;
27209;SDS011;14721;42.668;23.386;2022-07-18T05:41:34;2.33;;;1.45;;
27209;SDS011;14721;42.668;23.386;2022-07-18T05:44:00;3.15;;;2.00;;
27209;SDS011;14721;42.668;23.386;2022-07-18T05:46:25;6.13;;;1.75;;
27209;SDS011;14721;42.668;23.386;2022-07-18T05:48:53;3.85;;;1.70;;
27209;SDS011;14721;42.668;23.386;2022-07-18T05:51:19;2.20;;;1.58;;
27209;SDS011;14721;42.668;23.386;2022-07-18T05:56:15;3.53;;;1.50;;
27209;SDS011;14721;42.668;23.386;2022-07-18T05:58:46;2.95;;;1.88;;
27209;SDS011;14721;42.668;23.386;2022-07-18T06:01:13;2.80;;;1.85;;
27209;SDS011;14721;42.668;23.386;2022-07-18T06:03:42;4.65;;;2.30;;
27209;SDS011;14721;42.668;23.386;2022-07-18T06:06:08;2.33;;;1.85;;
27209;SDS011;14721;42.668;23.386;2022-07-18T06:08:34;2.10;;;1.60;;
27209;SDS011;14721;42.668;23.386;2022-07-18T06:10:59;4.65;;;1.65;;
27209;SDS011;14721;42.668;23.386;2022-07-18T06:13:27;6.32;;;1.92;;
27209;SDS011;14721;42.668;23.386;2022-07-18T06:15:54;1.83;;;1.45;;
27209;SDS011;14721;42.668;23.386;2022-07-18T06:18:20;3.10;;;2.03;;
27209;SDS011;14721;42.668;23.386;2022-07-18T06:20:45;8.40;;;1.40;;
27209;SDS011;14721;42.668;23.386;2022-07-18T06:23:11;3.58;;;1.50;;
27209;SDS011;14721;42.668;23.386;2022-07-18T06:25:36;2.35;;;1.10;;
27209;SDS011;14721;42.668;23.386;2022-07-18T06:28:03;5.63;;;1.83;;
27209;SDS011;14721;42.668;23.386;2022-07-18T06:30:29;1.10;;;0.82;;
27209;SDS011;14721;42.668;23.386;2022-07-18T06:32:56;1.45;;;0.90;;
27209;SDS011;14721;42.668;23.386;2022-07-18T06:35:21;0.50;;;0.50;;
27209;SDS011;14721;42.668;23.386;2022-07-18T06:37:47;0.77;;;0.70;;
27209;SDS011;14721;42.668;23.386;2022-07-18T06:40:12;3.25;;;0.60;;
27209;SDS011;14721;42.668;23.386;2022-07-18T06:42:38;1.58;;;0.85;;
27209;SDS011;14721;42.668;23.386;2022-07-18T06:45:04;0.82;;;0.82;;
27209;SDS011;14721;42.668;23.386;2022-07-18T06:47:32;5.82;;;1.00;;
27209;SDS011;14721;42.668;23.386;2022-07-18T06:49:58;2.17;;;0.95;;
27209;SDS011;14721;42.668;23.386;2022-07-18T06:52:23;1.55;;;0.80;;
27209;SDS011;14721;42.668;23.386;2022-07-18T06:54:49;1.30;;;0.82;;
27209;SDS011;14721;42.668;23.386;2022-07-18T06:57:15;1.08;;;0.88;;
27209;SDS011;14721;42.668;23.386;2022-07-18T06:59:41;1.58;;;1.05;;
27209;SDS011;14721;42.668;23.386;2022-07-18T07:02:07;2.70;;;1.20;;
27209;SDS011;14721;42.668;23.386;2022-07-18T07:04:35;9.75;;;2.75;;
27209;SDS011;14721;42.668;23.386;2022-07-18T07:07:00;0.82;;;0.50;;
27209;SDS011;14721;42.668;23.386;2022-07-18T07:09:27;1.58;;;1.00;;
27209;SDS011;14721;42.668;23.386;2022-07-18T07:11:52;1.27;;;0.60;;
27209;SDS011;14721;42.668;23.386;2022-07-18T07:14:18;1.95;;;1.15;;
27209;SDS011;14721;42.668;23.386;2022-07-18T07:16:44;3.33;;;1.52;;
27209;SDS011;14721;42.668;23.386;2022-07-18T07:19:10;3.33;;;1.30;;
27209;SDS011;14721;42.668;23.386;2022-07-18T07:21:36;1.02;;;0.70;;
27209;SDS011;14721;42.668;23.386;2022-07-18T07:24:03;0.98;;;0.68;;
27209;SDS011;14721;42.668;23.386;2022-07-18T07:26:29;2.15;;;1.00;;
27209;SDS011;14721;42.668;23.386;2022-07-18T07:28:55;1.00;;;0.75;;
27209;SDS011;14721;42.668;23.386;2022-07-18T07:31:20;1.30;;;0.75;;
27209;SDS011;14721;42.668;23.386;2022-07-18T07:33:46;0.70;;;0.70;;
27209;SDS011;14721;42.668;23.386;2022-07-18T07:36:11;1.75;;;0.70;;
27209;SDS011;14721;42.668;23.386;2022-07-18T07:38:38;1.05;;;0.50;;
27209;SDS011;14721;42.668;23.386;2022-07-18T07:41:03;1.40;;;0.88;;
27209;SDS011;14721;42.668;23.386;2022-07-18T07:43:29;0.60;;;0.60;;
27209;SDS011;14721;42.668;23.386;2022-07-18T07:45:54;2.85;;;0.82;;
27209;SDS011;14721;42.668;23.386;2022-07-18T07:48:21;1.67;;;0.70;;
27209;SDS011;14721;42.668;23.386;2022-07-18T07:50:47;1.00;;;0.70;;
27209;SDS011;14721;42.668;23.386;2022-07-18T07:53:15;0.80;;;0.63;;
27209;SDS011;14721;42.668;23.386;2022-07-18T07:55:41;1.52;;;0.60;;
27209;SDS011;14721;42.668;23.386;2022-07-18T07:58:06;1.40;;;0.85;;
27209;SDS011;14721;42.668;23.386;2022-07-18T08:00:32;1.55;;;0.80;;
27209;SDS011;14721;42.668;23.386;2022-07-18T08:02:59;0.70;;;0.63;;
27209;SDS011;14721;42.668;23.386;2022-07-18T08:05:28;1.23;;;0.40;;
27209;SDS011;14721;42.668;23.386;2022-07-18T08:07:56;0.82;;;0.80;;
27209;SDS011;14721;42.668;23.386;2022-07-18T08:10:23;0.90;;;0.80;;
27209;SDS011;14721;42.668;23.386;2022-07-18T08:12:51;2.13;;;0.80;;
27209;SDS011;14721;42.668;23.386;2022-07-18T08:15:17;5.50;;;0.90;;
27209;SDS011;14721;42.668;23.386;2022-07-18T08:17:43;1.02;;;0.70;;
27209;SDS011;14721;42.668;23.386;2022-07-18T08:20:09;2.70;;;1.10;;
27209;SDS011;14721;42.668;23.386;2022-07-18T08:22:51;0.85;;;0.45;;
27209;SDS011;14721;42.668;23.386;2022-07-18T08:25:21;6.72;;;0.60;;
27209;SDS011;14721;42.668;23.386;2022-07-18T08:27:48;1.05;;;0.65;;
27209;SDS011;14721;42.668;23.386;2022-07-18T08:30:14;0.80;;;0.55;;
27209;SDS011;14721;42.668;23.386;2022-07-18T08:32:43;0.95;;;0.70;;
27209;SDS011;14721;42.668;23.386;2022-07-18T08:35:08;1.23;;;0.60;;
27209;SDS011;14721;42.668;23.386;2022-07-18T08:37:34;0.75;;;0.70;;
27209;SDS011;14721;42.668;23.386;2022-07-18T08:40:00;1.38;;;0.75;;
27209;SDS011;14721;42.668;23.386;2022-07-18T08:42:26;1.77;;;0.73;;
27209;SDS011;14721;42.668;23.386;2022-07-18T08:44:53;0.77;;;0.63;;
27209;SDS011;14721;42.668;23.386;2022-07-18T08:47:21;2.28;;;0.60;;
27209;SDS011;14721;42.668;23.386;2022-07-18T08:49:48;0.57;;;0.50;;
27209;SDS011;14721;42.668;23.386;2022-07-18T08:52:15;1.48;;;0.50;;
27209;SDS011;14721;42.668;23.386;2022-07-18T08:54:41;1.60;;;0.93;;
27209;SDS011;14721;42.668;23.386;2022-07-18T08:57:09;1.30;;;0.82;;
27209;SDS011;14721;42.668;23.386;2022-07-18T08:59:35;0.43;;;0.43;;
27209;SDS011;14721;42.668;23.386;2022-07-18T09:02:00;0.73;;;0.60;;
27209;SDS011;14721;42.668;23.386;2022-07-18T09:04:36;3.90;;;1.02;;
27209;SDS011;14721;42.668;23.386;2022-07-18T09:07:03;2.45;;;1.20;;
27209;SDS011;14721;42.668;23.386;2022-07-18T09:09:30;0.65;;;0.65;;
27209;SDS011;14721;42.668;23.386;2022-07-18T09:11:57;1.05;;;0.70;;
27209;SDS011;14721;42.668;23.386;2022-07-18T09:17:03;7.53;;;1.83;;
27209;SDS011;14721;42.668;23.386;2022-07-18T09:20:19;2.45;;;0.88;;
27209;SDS011;14721;42.668;23.386;2022-07-18T09:25:13;1.50;;;0.88;;
27209;SDS011;14721;42.668;23.386;2022-07-18T09:27:41;2.85;;;1.63;;
27209;SDS011;14721;42.668;23.386;2022-07-18T09:30:13;1.48;;;0.90;;
27209;SDS011;14721;42.668;23.386;2022-07-18T09:32:42;0.88;;;0.65;;
27209;SDS011;14721;42.668;23.386;2022-07-18T09:35:14;2.67;;;1.02;;
27209;SDS011;14721;42.668;23.386;2022-07-18T09:40:27;1.17;;;0.75;;
27209;SDS011;14721;42.668;23.386;2022-07-18T09:43:05;0.60;;;0.50;;
27209;SDS011;14721;42.668;23.386;2022-07-18T09:45:42;7.38;;;0.70;;
27209;SDS011;14721;42.668;23.386;2022-07-18T09:48:15;0.77;;;0.57;;
27209;SDS011;14721;42.668;23.386;2022-07-18T09:50:59;1.05;;;0.85;;
27209;SDS011;14721;42.668;23.386;2022-07-18T09:53:33;1.17;;;0.85;;
27209;SDS011;14721;42.668;23.386;2022-07-18T09:56:02;9.20;;;1.17;;
27209;SDS011;14721;42.668;23.386;2022-07-18T09:59:12;3.33;;;1.70;;
27209;SDS011;14721;42.668;23.386;2022-07-18T10:01:22;1.25;;;0.85;;
27209;SDS011;14721;42.668;23.386;2022-07-18T10:04:05;14.60;;;1.58;;
27209;SDS011;14721;42.668;23.386;2022-07-18T10:06:32;1.00;;;0.88;;
27209;SDS011;14721;42.668;23.386;2022-07-18T10:08:58;0.50;;;0.50;;
27209;SDS011;14721;42.668;23.386;2022-07-18T10:11:23;1.23;;;0.68;;
27209;SDS011;14721;42.668;23.386;2022-07-18T10:13:49;2.38;;;1.10;;
27209;SDS011;14721;42.668;23.386;2022-07-18T10:16:23;3.45;;;0.98;;
27209;SDS011;14721;42.668;23.386;2022-07-18T10:18:50;1.67;;;1.05;;
27209;SDS011;14721;42.668;23.386;2022-07-18T10:21:16;5.57;;;1.27;;
27209;SDS011;14721;42.668;23.386;2022-07-18T10:23:45;2.35;;;1.33;;
27209;SDS011;14721;42.668;23.386;2022-07-18T10:31:27;1.58;;;1.08;;
27209;SDS011;14721;42.668;23.386;2022-07-18T10:34:20;3.80;;;1.15;;
27209;SDS011;14721;42.668;23.386;2022-07-18T10:39:35;2.10;;;0.98;;
27209;SDS011;14721;42.668;23.386;2022-07-18T10:44:36;1.75;;;1.02;;
27209;SDS011;14721;42.668;23.386;2022-07-18T10:52:55;2.03;;;0.93;;
27209;SDS011;14721;42.668;23.386;2022-07-18T11:00:03;0.95;;;0.80;;
27209;SDS011;14721;42.668;23.386;2022-07-18T11:02:33;0.80;;;0.80;;
27209;SDS011;14721;42.668;23.386;2022-07-18T11:08:37;1.52;;;1.15;;
27209;SDS011;14721;42.668;23.386;2022-07-18T11:21:29;2.00;;;1.45;;
27209;SDS011;14721;42.668;23.386;2022-07-18T11:24:06;3.28;;;0.80;;
27209;SDS011;14721;42.668;23.386;2022-07-18T11:26:34;1.20;;;0.93;;
27209;SDS011;14721;42.668;23.386;2022-07-18T11:29:06;1.90;;;1.10;;
27209;SDS011;14721;42.668;23.386;2022-07-18T11:34:20;2.33;;;1.08;;
27209;SDS011;14721;42.668;23.386;2022-07-18T11:36:47;1.60;;;0.60;;
27209;SDS011;14721;42.668;23.386;2022-07-18T11:39:13;1.73;;;0.82;;
27209;SDS011;14721;42.668;23.386;2022-07-18T11:41:40;1.00;;;0.90;;
27209;SDS011;14721;42.668;23.386;2022-07-18T11:44:16;2.70;;;1.00;;
27209;SDS011;14721;42.668;23.386;2022-07-18T11:49:53;1.02;;;0.65;;
27209;SDS011;14721;42.668;23.386;2022-07-18T11:52:20;1.05;;;0.90;;
27209;SDS011;14721;42.668;23.386;2022-07-18T11:54:46;0.80;;;0.77;;
27209;SDS011;14721;42.668;23.386;2022-07-18T11:57:13;1.60;;;1.40;;
27209;SDS011;14721;42.668;23.386;2022-07-18T11:59:50;3.05;;;0.93;;
27209;SDS011;14721;42.668;23.386;2022-07-18T12:02:15;2.60;;;0.90;;
27209;SDS011;14721;42.668;23.386;2022-07-18T12:04:42;5.68;;;0.90;;
27209;SDS011;14721;42.668;23.386;2022-07-18T12:09:51;5.70;;;2.10;;
27209;SDS011;14721;42.668;23.386;2022-07-18T12:12:20;1.38;;;0.90;;
27209;SDS011;14721;42.668;23.386;2022-07-18T12:14:56;2.63;;;1.05;;
27209;SDS011;14721;42.668;23.386;2022-07-18T12:17:25;3.92;;;1.40;;
27209;SDS011;14721;42.668;23.386;2022-07-18T12:19:51;2.00;;;1.02;;
27209;SDS011;14721;42.668;23.386;2022-07-18T12:22:17;2.25;;;1.05;;
27209;SDS011;14721;42.668;23.386;2022-07-18T12:24:54;1.88;;;1.30;;
27209;SDS011;14721;42.668;23.386;2022-07-18T12:32:37;2.70;;;1.05;;
27209;SDS011;14721;42.668;23.386;2022-07-18T12:35:20;2.03;;;1.10;;
27209;SDS011;14721;42.668;23.386;2022-07-18T12:43:26;1.95;;;1.40;;
27209;SDS011;14721;42.668;23.386;2022-07-18T12:46:01;1.80;;;0.88;;
27209;SDS011;14721;42.668;23.386;2022-07-18T12:48:29;3.05;;;1.48;;
27209;SDS011;14721;42.668;23.386;2022-07-18T12:53:23;1.70;;;1.05;;
27209;SDS011;14721;42.668;23.386;2022-07-18T12:55:49;1.27;;;0.90;;
27209;SDS011;14721;42.668;23.386;2022-07-18T12:58:16;4.00;;;1.70;;
27209;SDS011;14721;42.668;23.386;2022-07-18T13:00:42;1.42;;;1.10;;
27209;SDS011;14721;42.668;23.386;2022-07-18T13:03:09;2.97;;;1.63;;
27209;SDS011;14721;42.668;23.386;2022-07-18T13:05:36;3.17;;;1.40;;
27209;SDS011;14721;42.668;23.386;2022-07-18T13:08:01;3.47;;;1.00;;
27209;SDS011;14721;42.668;23.386;2022-07-18T13:10:27;1.30;;;1.05;;
27209;SDS011;14721;42.668;23.386;2022-07-18T13:12:52;1.88;;;1.13;;
27209;SDS011;14721;42.668;23.386;2022-07-18T13:15:19;1.15;;;1.05;;
27209;SDS011;14721;42.668;23.386;2022-07-18T13:17:46;2.25;;;1.20;;
27209;SDS011;14721;42.668;23.386;2022-07-18T13:20:14;0.88;;;0.75;;
27209;SDS011;14721;42.668;23.386;2022-07-18T13:22:40;1.83;;;1.13;;
27209;SDS011;14721;42.668;23.386;2022-07-18T13:25:06;2.85;;;1.40;;
27209;SDS011;14721;42.668;23.386;2022-07-18T13:27:33;1.88;;;0.93;;
27209;SDS011;14721;42.668;23.386;2022-07-18T13:30:01;2.08;;;1.05;;
27209;SDS011;14721;42.668;23.386;2022-07-18T13:32:28;1.95;;;1.15;;
27209;SDS011;14721;42.668;23.386;2022-07-18T13:34:54;1.55;;;0.90;;
27209;SDS011;14721;42.668;23.386;2022-07-18T13:37:20;1.92;;;1.17;;
27209;SDS011;14721;42.668;23.386;2022-07-18T13:39:46;2.08;;;0.90;;
27209;SDS011;14721;42.668;23.386;2022-07-18T13:42:11;2.95;;;1.13;;
27209;SDS011;14721;42.668;23.386;2022-07-18T13:44:38;1.95;;;0.98;;
27209;SDS011;14721;42.668;23.386;2022-07-18T13:47:03;4.78;;;1.58;;
27209;SDS011;14721;42.668;23.386;2022-07-18T13:49:29;2.00;;;1.40;;
27209;SDS011;14721;42.668;23.386;2022-07-18T13:51:54;1.75;;;0.90;;
27209;SDS011;14721;42.668;23.386;2022-07-18T13:54:20;2.35;;;1.23;;
27209;SDS011;14721;42.668;23.386;2022-07-18T13:56:45;2.05;;;0.82;;
27209;SDS011;14721;42.668;23.386;2022-07-18T13:59:12;2.35;;;1.45;;
27209;SDS011;14721;42.668;23.386;2022-07-18T14:01:38;1.38;;;1.00;;
27209;SDS011;14721;42.668;23.386;2022-07-18T14:04:06;1.10;;;0.80;;
27209;SDS011;14721;42.668;23.386;2022-07-18T14:06:31;2.47;;;1.10;;
27209;SDS011;14721;42.668;23.386;2022-07-18T14:08:57;1.17;;;0.85;;
27209;SDS011;14721;42.668;23.386;2022-07-18T14:11:22;2.88;;;1.38;;
27209;SDS011;14721;42.668;23.386;2022-07-18T14:13:49;3.35;;;1.25;;
27209;SDS011;14721;42.668;23.386;2022-07-18T14:16:15;1.63;;;1.30;;
27209;SDS011;14721;42.668;23.386;2022-07-18T14:18:42;2.88;;;1.38;;
27209;SDS011;14721;42.668;23.386;2022-07-18T14:21:07;3.42;;;1.30;;
27209;SDS011;14721;42.668;23.386;2022-07-18T14:23:33;1.48;;;1.20;;
27209;SDS011;14721;42.668;23.386;2022-07-18T14:25:58;1.52;;;1.10;;
27209;SDS011;14721;42.668;23.386;2022-07-18T14:28:24;3.40;;;1.27;;
27209;SDS011;14721;42.668;23.386;2022-07-18T14:30:50;4.57;;;1.40;;
27209;SDS011;14721;42.668;23.386;2022-07-18T14:33:17;2.03;;;1.42;;
27209;SDS011;14721;42.668;23.386;2022-07-18T14:35:42;2.63;;;1.10;;
27209;SDS011;14721;42.668;23.386;2022-07-18T14:38:08;5.60;;;1.38;;
27209;SDS011;14721;42.668;23.386;2022-07-18T14:40:33;1.92;;;1.05;;
27209;SDS011;14721;42.668;23.386;2022-07-18T14:42:59;1.75;;;1.10;;
27209;SDS011;14721;42.668;23.386;2022-07-18T14:45:24;2.55;;;1.50;;
27209;SDS011;14721;42.668;23.386;2022-07-18T14:47:50;2.05;;;0.85;;
27209;SDS011;14721;42.668;23.386;2022-07-18T14:50:15;2.53;;;1.27;;
27209;SDS011;14721;42.668;23.386;2022-07-18T14:52:41;6.90;;;1.77;;
27209;SDS011;14721;42.668;23.386;2022-07-18T14:55:07;3.33;;;1.73;;
27209;SDS011;14721;42.668;23.386;2022-07-18T14:57:33;2.17;;;1.52;;
27209;SDS011;14721;42.668;23.386;2022-07-18T15:00:00;4.90;;;1.15;;
27209;SDS011;14721;42.668;23.386;2022-07-18T15:02:27;1.77;;;1.40;;
27209;SDS011;14721;42.668;23.386;2022-07-18T15:04:55;3.03;;;1.90;;
27209;SDS011;14721;42.668;23.386;2022-07-18T15:07:21;1.58;;;1.17;;
27209;SDS011;14721;42.668;23.386;2022-07-18T15:09:47;6.05;;;1.73;;
27209;SDS011;14721;42.668;23.386;2022-07-18T15:12:13;1.85;;;1.20;;
27209;SDS011;14721;42.668;23.386;2022-07-18T15:14:40;1.75;;;0.98;;
27209;SDS011;14721;42.668;23.386;2022-07-18T15:17:05;2.35;;;1.20;;
27209;SDS011;14721;42.668;23.386;2022-07-18T15:19:35;3.30;;;1.30;;
27209;SDS011;14721;42.668;23.386;2022-07-18T15:22:03;1.75;;;1.10;;
27209;SDS011;14721;42.668;23.386;2022-07-18T15:24:30;1.42;;;1.00;;
27209;SDS011;14721;42.668;23.386;2022-07-18T15:26:57;0.82;;;0.82;;
27209;SDS011;14721;42.668;23.386;2022-07-18T15:29:22;2.88;;;1.70;;
27209;SDS011;14721;42.668;23.386;2022-07-18T15:31:48;1.75;;;1.10;;
27209;SDS011;14721;42.668;23.386;2022-07-18T15:34:14;1.15;;;0.95;;
27209;SDS011;14721;42.668;23.386;2022-07-18T15:36:39;1.75;;;1.30;;
27209;SDS011;14721;42.668;23.386;2022-07-18T15:39:05;2.22;;;1.27;;
27209;SDS011;14721;42.668;23.386;2022-07-18T15:41:32;2.03;;;1.30;;